createdAt,value
2017-08-14T00:01:20.642Z,17.10
2017-08-14T00:03:48.714Z,17.10
2017-08-14T00:06:16.806Z,17.10
2017-08-14T00:08:45.667Z,17.00
2017-08-14T00:11:13.786Z,17.00
2017-08-14T00:13:41.857Z,17.00
2017-08-14T00:16:10.698Z,17.00
2017-08-14T00:18:38.799Z,16.90
2017-08-14T00:21:07.657Z,16.90
2017-08-14T00:23:36.159Z,17.00
2017-08-14T00:26:04.235Z,17.00
2017-08-14T00:28:32.302Z,16.80
2017-08-14T00:31:00.407Z,16.90
2017-08-14T00:33:29.247Z,17.00
2017-08-14T00:35:57.322Z,16.90
2017-08-14T00:38:25.811Z,16.80
2017-08-14T00:40:53.887Z,16.80
2017-08-14T00:43:22.032Z,16.80
2017-08-14T00:45:50.831Z,16.90
2017-08-14T00:48:18.935Z,16.80
2017-08-14T00:50:47.774Z,16.80
2017-08-14T00:53:15.855Z,16.80
2017-08-14T00:55:44.359Z,16.70
2017-08-14T00:58:12.427Z,16.70
2017-08-14T01:00:40.503Z,16.70
2017-08-14T01:03:08.602Z,16.70
2017-08-14T01:05:37.077Z,16.70
2017-08-14T01:08:05.186Z,16.70
2017-08-14T01:10:33.263Z,16.70
2017-08-14T01:13:01.334Z,16.80
2017-08-14T01:15:29.446Z,16.70
2017-08-14T01:17:57.919Z,16.70
2017-08-14T01:20:26.390Z,16.60
2017-08-14T01:22:54.493Z,16.60
2017-08-14T01:25:22.586Z,16.60
2017-08-14T01:27:51.430Z,16.60
2017-08-14T01:30:19.555Z,16.60
2017-08-14T01:32:48.390Z,16.50
2017-08-14T01:35:16.466Z,16.50
2017-08-14T01:37:44.570Z,16.50
2017-08-14T01:40:12.647Z,16.50
2017-08-14T01:42:42.122Z,16.50
2017-08-14T01:45:10.219Z,16.50
2017-08-14T01:47:39.104Z,16.50
2017-08-14T01:50:07.185Z,16.50
2017-08-14T01:52:35.263Z,16.40
2017-08-14T01:55:04.123Z,16.40
2017-08-14T01:57:32.224Z,16.40
2017-08-14T02:00:01.069Z,16.30
2017-08-14T02:02:29.170Z,16.40
2017-08-14T02:04:57.279Z,16.50
2017-08-14T02:07:25.746Z,16.40
2017-08-14T02:09:54.215Z,16.50
2017-08-14T02:12:23.084Z,16.40
2017-08-14T02:14:51.159Z,16.40
2017-08-14T02:17:19.257Z,16.40
2017-08-14T02:19:48.106Z,16.50
2017-08-14T02:22:16.600Z,16.40
2017-08-14T02:24:44.696Z,16.30
2017-08-14T02:27:13.539Z,16.30
2017-08-14T02:29:41.639Z,16.30
2017-08-14T02:32:09.716Z,16.20
2017-08-14T02:37:07.212Z,16.10
2017-08-14T02:39:36.053Z,16.10
2017-08-14T02:42:04.919Z,16.10
2017-08-14T02:44:32.991Z,16.10
2017-08-14T02:47:01.095Z,16.10
2017-08-14T02:49:29.203Z,16.10
2017-08-14T02:51:57.276Z,16.20
2017-08-14T02:54:25.751Z,16.20
2017-08-14T02:56:53.854Z,16.20
2017-08-14T02:59:22.331Z,16.20
2017-08-14T03:01:50.411Z,16.20
2017-08-14T03:04:18.528Z,16.30
2017-08-14T03:06:47.378Z,16.30
2017-08-14T03:09:15.843Z,16.30
2017-08-14T03:11:44.713Z,16.40
2017-08-14T03:14:12.794Z,16.40
2017-08-14T03:16:41.659Z,16.30
2017-08-14T03:19:09.739Z,16.40
2017-08-14T03:21:37.847Z,16.50
2017-08-14T03:24:06.320Z,16.40
2017-08-14T03:26:35.256Z,16.40
2017-08-14T03:29:03.319Z,16.50
2017-08-14T03:31:31.399Z,16.50
2017-08-14T03:33:59.500Z,16.50
2017-08-14T03:36:27.598Z,16.50
2017-08-14T03:38:56.067Z,16.50
2017-08-14T03:41:24.935Z,16.40
2017-08-14T03:43:53.016Z,16.40
2017-08-14T03:46:21.106Z,16.40
2017-08-14T03:48:49.687Z,16.50
2017-08-14T03:51:18.535Z,16.40
2017-08-14T03:53:46.615Z,16.40
2017-08-14T03:56:14.711Z,16.40
2017-08-14T03:58:42.795Z,16.40
2017-08-14T04:01:10.895Z,16.30
2017-08-14T04:03:39.375Z,16.30
2017-08-14T04:06:07.460Z,16.20
2017-08-14T04:08:35.548Z,16.10
2017-08-14T04:11:03.618Z,16.00
2017-08-14T04:13:32.479Z,15.90
2017-08-14T04:16:00.554Z,15.90
2017-08-14T04:18:29.046Z,15.90
2017-08-14T04:20:57.128Z,15.80
2017-08-14T04:23:25.230Z,15.80
2017-08-14T04:25:53.351Z,15.80
2017-08-14T04:28:21.418Z,15.80
2017-08-14T04:30:50.259Z,15.90
2017-08-14T04:33:18.828Z,15.90
2017-08-14T04:35:47.631Z,15.90
2017-08-14T04:38:15.708Z,16.00
2017-08-14T04:40:44.203Z,15.90
2017-08-14T04:43:12.299Z,15.90
2017-08-14T04:45:41.143Z,16.00
2017-08-14T04:48:09.258Z,16.00
2017-08-14T04:50:38.111Z,15.90
2017-08-14T04:53:06.186Z,15.80
2017-08-14T04:55:34.281Z,15.70
2017-08-14T04:58:03.124Z,15.80
2017-08-14T05:00:31.223Z,15.90
2017-08-14T05:02:59.295Z,15.90
2017-08-14T05:05:28.268Z,16.00
2017-08-14T05:07:56.331Z,16.00
2017-08-14T05:10:24.411Z,16.00
2017-08-14T05:12:52.508Z,16.00
2017-08-14T05:15:20.587Z,15.90
2017-08-14T05:17:48.683Z,15.90
2017-08-14T05:20:17.527Z,15.80
2017-08-14T05:22:45.626Z,15.80
2017-08-14T05:25:13.716Z,15.90
2017-08-14T05:27:42.558Z,16.00
2017-08-14T05:30:10.659Z,16.00
2017-08-14T05:32:38.740Z,16.10
2017-08-14T05:35:06.811Z,16.30
2017-08-14T05:37:34.906Z,16.30
2017-08-14T05:40:03.011Z,16.50
2017-08-14T05:42:31.092Z,16.60
2017-08-14T05:44:59.191Z,16.70
2017-08-14T05:47:27.286Z,16.70
2017-08-14T05:49:56.135Z,16.70
2017-08-14T05:52:24.243Z,16.70
2017-08-14T05:54:53.092Z,16.80
2017-08-14T05:57:21.175Z,16.80
2017-08-14T05:59:49.287Z,16.80
2017-08-14T06:02:17.777Z,17.00
2017-08-14T06:04:46.610Z,17.10
2017-08-14T06:07:14.713Z,17.10
2017-08-14T06:09:43.191Z,17.30
2017-08-14T06:12:11.296Z,17.30
2017-08-14T06:14:39.370Z,17.40
2017-08-14T06:17:07.451Z,17.40
2017-08-14T06:19:35.571Z,17.40
2017-08-14T06:22:03.646Z,17.30
2017-08-14T06:24:31.722Z,17.20
2017-08-14T06:26:59.821Z,17.20
2017-08-14T06:29:28.688Z,17.40
2017-08-14T06:31:56.762Z,17.70
2017-08-14T06:34:25.274Z,18.00
2017-08-14T06:36:53.350Z,18.30
2017-08-14T06:39:21.433Z,18.60
2017-08-14T06:41:49.931Z,18.80
2017-08-14T06:44:18.011Z,18.80
2017-08-14T06:46:46.103Z,18.90
2017-08-14T06:49:14.185Z,19.00
2017-08-14T06:51:42.700Z,19.20
2017-08-14T06:54:10.780Z,19.40
2017-08-14T06:56:38.863Z,19.50
2017-08-14T06:59:06.963Z,19.30
2017-08-14T07:01:35.430Z,19.30
2017-08-14T07:04:03.526Z,19.30
2017-08-14T07:06:32.004Z,19.50
2017-08-14T07:09:00.084Z,19.70
2017-08-14T07:11:28.183Z,19.60
2017-08-14T07:13:57.028Z,19.60
2017-08-14T07:16:25.908Z,19.50
2017-08-14T07:18:53.983Z,19.70
2017-08-14T07:21:22.459Z,20.10
2017-08-14T07:23:50.550Z,20.20
2017-08-14T07:26:18.631Z,20.50
2017-08-14T07:28:46.739Z,21.00
2017-08-14T07:31:14.820Z,21.30
2017-08-14T07:33:42.903Z,21.30
2017-08-14T07:36:10.998Z,21.40
2017-08-14T07:38:39.100Z,21.40
2017-08-14T07:41:07.179Z,21.50
2017-08-14T07:43:35.279Z,21.40
2017-08-14T07:46:03.371Z,21.60
2017-08-14T07:48:31.452Z,21.70
2017-08-14T07:50:59.556Z,21.80
2017-08-14T07:53:27.635Z,21.80
2017-08-14T07:55:56.131Z,21.60
2017-08-14T07:58:24.975Z,21.40
2017-08-14T08:00:53.079Z,21.30
2017-08-14T08:03:21.218Z,21.00
2017-08-14T08:05:49.260Z,20.90
2017-08-14T08:08:17.375Z,21.10
2017-08-14T08:10:45.452Z,21.20
2017-08-14T08:13:13.531Z,21.50
2017-08-14T08:15:41.666Z,21.60
2017-08-14T08:18:09.751Z,21.80
2017-08-14T08:20:37.823Z,22.00
2017-08-14T08:23:05.927Z,22.10
2017-08-14T08:25:34.069Z,22.00
2017-08-14T08:28:02.875Z,22.00
2017-08-14T08:30:30.980Z,21.90
2017-08-14T08:32:59.821Z,21.80
2017-08-14T08:35:27.923Z,21.80
2017-08-14T08:37:56.022Z,21.70
2017-08-14T08:40:24.499Z,21.60
2017-08-14T08:42:53.382Z,21.50
2017-08-14T08:45:22.228Z,21.60
2017-08-14T08:47:50.695Z,21.60
2017-08-14T08:50:18.796Z,21.90
2017-08-14T08:52:47.276Z,22.20
2017-08-14T08:55:16.189Z,22.30
2017-08-14T08:57:44.656Z,22.60
2017-08-14T09:00:12.736Z,22.40
2017-08-14T09:02:40.831Z,22.50
2017-08-14T09:05:09.712Z,22.60
2017-08-14T09:07:37.797Z,22.40
2017-08-14T09:10:06.640Z,22.30
2017-08-14T09:12:34.744Z,22.10
2017-08-14T09:15:03.240Z,22.30
2017-08-14T09:17:31.719Z,22.40
2017-08-14T09:20:00.584Z,22.60
2017-08-14T09:22:29.064Z,23.00
2017-08-14T09:24:57.171Z,23.60
2017-08-14T09:27:25.638Z,24.10
2017-08-14T09:29:54.490Z,24.40
2017-08-14T09:32:22.591Z,24.50
2017-08-14T09:34:50.668Z,24.50
2017-08-14T09:37:18.776Z,24.50
2017-08-14T09:39:46.852Z,24.60
2017-08-14T09:42:14.947Z,24.80
2017-08-14T09:44:43.028Z,25.10
2017-08-14T09:47:11.535Z,25.00
2017-08-14T09:49:39.636Z,25.00
2017-08-14T09:52:08.096Z,25.00
2017-08-14T09:54:36.198Z,24.90
2017-08-14T09:57:04.296Z,24.90
2017-08-14T09:59:32.772Z,24.70
2017-08-14T10:02:01.279Z,24.90
2017-08-14T10:04:29.361Z,25.30
2017-08-14T10:06:57.840Z,25.80
2017-08-14T10:09:25.940Z,26.40
2017-08-14T10:11:54.407Z,26.80
2017-08-14T10:14:22.908Z,26.80
2017-08-14T10:16:51.420Z,27.10
2017-08-14T10:19:19.504Z,27.00
2017-08-14T10:21:47.584Z,27.30
2017-08-14T10:24:15.754Z,27.30
2017-08-14T10:26:44.207Z,27.50
2017-08-14T10:29:12.292Z,27.80
2017-08-14T10:31:40.403Z,27.80
2017-08-14T10:34:08.478Z,27.80
2017-08-14T10:36:36.560Z,27.90
2017-08-14T10:39:04.658Z,27.90
2017-08-14T10:41:33.495Z,28.30
2017-08-14T10:44:01.608Z,28.40
2017-08-14T10:46:30.550Z,28.70
2017-08-14T10:48:58.593Z,28.70
2017-08-14T10:51:26.692Z,28.70
2017-08-14T10:53:54.767Z,28.70
2017-08-14T10:56:22.838Z,28.80
2017-08-14T10:58:50.951Z,29.20
2017-08-14T11:01:19.026Z,29.60
2017-08-14T11:03:47.872Z,30.10
2017-08-14T11:06:15.972Z,30.00
2017-08-14T11:08:45.550Z,30.00
2017-08-14T11:11:13.672Z,30.00
2017-08-14T11:13:42.258Z,29.70
2017-08-14T11:16:10.251Z,29.60
2017-08-14T11:18:38.351Z,29.40
2017-08-14T11:21:06.464Z,29.00
2017-08-14T11:23:35.418Z,29.60
2017-08-14T11:26:03.461Z,30.40
2017-08-14T11:28:31.563Z,30.40
2017-08-14T11:30:59.639Z,31.10
2017-08-14T11:33:28.522Z,31.40
2017-08-14T11:35:56.594Z,31.30
2017-08-14T11:38:24.680Z,31.30
2017-08-14T11:40:52.759Z,30.90
2017-08-14T11:43:21.322Z,31.50
2017-08-14T11:45:49.388Z,31.50
2017-08-14T11:48:17.534Z,32.00
2017-08-14T11:50:45.607Z,32.00
2017-08-14T11:53:13.684Z,32.20
2017-08-14T11:55:41.779Z,32.10
2017-08-14T11:58:09.863Z,31.80
2017-08-14T12:00:37.972Z,31.80
2017-08-14T12:03:06.857Z,32.50
2017-08-14T12:05:34.936Z,32.50
2017-08-14T12:08:03.427Z,32.70
2017-08-14T12:10:32.276Z,32.70
2017-08-14T12:13:00.380Z,32.30
2017-08-14T12:15:29.232Z,32.10
2017-08-14T12:17:57.347Z,32.00
2017-08-14T12:20:26.195Z,32.20
2017-08-14T12:22:54.363Z,32.20
2017-08-14T12:25:22.820Z,31.80
2017-08-14T12:27:50.899Z,31.60
2017-08-14T12:30:19.091Z,31.80
2017-08-14T12:32:47.155Z,31.70
2017-08-14T12:35:15.271Z,31.30
2017-08-14T12:37:43.751Z,31.10
2017-08-14T12:40:11.822Z,30.80
2017-08-14T12:42:39.938Z,30.70
2017-08-14T12:45:08.008Z,30.40
2017-08-14T12:47:36.618Z,30.50
2017-08-14T12:50:04.654Z,30.30
2017-08-14T12:52:33.131Z,30.30
2017-08-14T12:55:02.014Z,31.10
2017-08-14T12:57:30.855Z,31.90
2017-08-14T12:59:58.927Z,32.50
2017-08-14T13:02:27.033Z,33.20
2017-08-14T13:04:55.499Z,33.90
2017-08-14T13:07:23.615Z,33.90
2017-08-14T13:09:51.696Z,33.90
2017-08-14T13:12:19.767Z,33.60
2017-08-14T13:14:47.875Z,33.70
2017-08-14T13:17:15.956Z,33.00
2017-08-14T13:19:44.067Z,33.50
2017-08-14T13:22:12.911Z,34.00
2017-08-14T13:24:41.012Z,34.10
2017-08-14T13:27:09.086Z,33.60
2017-08-14T13:29:37.936Z,33.10
2017-08-14T13:32:06.035Z,33.10
2017-08-14T13:34:34.110Z,31.20
2017-08-14T13:37:02.207Z,31.00
2017-08-14T13:39:31.088Z,29.80
2017-08-14T13:41:59.946Z,29.50
2017-08-14T13:44:28.032Z,29.40
2017-08-14T13:46:56.143Z,29.30
2017-08-14T13:49:24.226Z,29.10
2017-08-14T13:51:52.307Z,28.90
2017-08-14T13:54:20.407Z,29.30
2017-08-14T13:56:48.484Z,30.90
2017-08-14T13:59:16.588Z,32.40
2017-08-14T14:01:45.439Z,33.00
2017-08-14T14:04:13.567Z,31.90
2017-08-14T14:06:42.040Z,30.80
2017-08-14T14:09:10.878Z,30.00
2017-08-14T14:11:38.980Z,29.50
2017-08-14T14:14:07.455Z,29.40
2017-08-14T14:16:35.547Z,30.80
2017-08-14T14:19:04.050Z,31.20
2017-08-14T14:21:32.154Z,31.00
2017-08-14T14:24:00.220Z,32.10
2017-08-14T14:26:28.295Z,32.70
2017-08-14T14:28:56.399Z,33.40
2017-08-14T14:31:24.484Z,33.40
2017-08-14T14:33:52.563Z,34.50
2017-08-14T14:36:21.467Z,34.80
2017-08-14T14:38:50.302Z,33.90
2017-08-14T14:41:18.386Z,33.90
2017-08-14T14:43:46.542Z,31.00
2017-08-14T14:46:15.435Z,30.00
2017-08-14T14:48:43.867Z,29.40
2017-08-14T14:51:12.747Z,29.50
2017-08-14T14:53:41.231Z,31.00
2017-08-14T14:56:10.070Z,32.60
2017-08-14T14:58:38.476Z,33.20
2017-08-14T15:01:06.550Z,33.50
2017-08-14T15:03:34.632Z,32.50
2017-08-14T15:06:02.731Z,32.50
2017-08-14T15:08:31.575Z,33.20
2017-08-14T15:10:59.691Z,32.90
2017-08-14T15:13:28.628Z,31.70
2017-08-14T15:15:56.662Z,31.60
2017-08-14T15:18:24.763Z,32.30
2017-08-14T15:20:52.858Z,33.40
2017-08-14T15:23:20.935Z,33.40
2017-08-14T15:25:49.051Z,32.90
2017-08-14T15:28:17.896Z,33.20
2017-08-14T15:30:45.963Z,33.20
2017-08-14T15:33:14.124Z,31.70
2017-08-14T15:35:42.299Z,30.70
2017-08-14T15:38:10.369Z,29.90
2017-08-14T15:40:38.415Z,29.30
2017-08-14T15:43:06.519Z,28.90
2017-08-14T15:45:34.599Z,28.60
2017-08-14T15:48:02.675Z,28.40
2017-08-14T15:50:30.771Z,28.30
2017-08-14T15:52:59.611Z,28.40
2017-08-14T15:55:27.730Z,28.40
2017-08-14T15:57:55.807Z,28.50
2017-08-14T16:00:23.911Z,28.50
2017-08-14T16:02:51.995Z,28.40
2017-08-14T16:05:20.512Z,28.30
2017-08-14T16:07:48.596Z,28.40
2017-08-14T16:10:16.670Z,28.50
2017-08-14T16:12:44.820Z,28.60
2017-08-14T16:15:13.290Z,29.20
2017-08-14T16:17:41.767Z,30.20
2017-08-14T16:20:10.271Z,30.80
2017-08-14T16:22:38.351Z,30.90
2017-08-14T16:25:06.851Z,31.00
2017-08-14T16:27:35.690Z,31.00
2017-08-14T16:30:03.782Z,31.20
2017-08-14T16:32:31.865Z,31.00
2017-08-14T16:34:59.968Z,30.70
2017-08-14T16:37:28.830Z,30.30
2017-08-14T16:39:56.916Z,30.10
2017-08-14T16:42:25.014Z,30.10
2017-08-14T16:44:53.491Z,29.40
2017-08-14T16:47:21.563Z,28.90
2017-08-14T16:49:50.438Z,28.40
2017-08-14T16:52:19.289Z,28.50
2017-08-14T16:54:47.760Z,28.80
2017-08-14T16:57:15.867Z,29.20
2017-08-14T16:59:44.336Z,29.30
2017-08-14T17:02:12.815Z,29.00
2017-08-14T17:04:41.352Z,28.90
2017-08-14T17:07:09.436Z,28.70
2017-08-14T17:09:37.915Z,28.70
2017-08-14T17:12:06.022Z,28.50
2017-08-14T17:14:34.105Z,28.10
2017-08-14T17:17:02.580Z,27.80
2017-08-14T17:19:30.687Z,27.60
2017-08-14T17:21:59.158Z,27.40
2017-08-14T17:24:28.008Z,27.30
2017-08-14T17:26:56.110Z,27.30
2017-08-14T17:29:24.591Z,27.10
2017-08-14T17:31:52.693Z,27.00
2017-08-14T17:34:21.531Z,26.90
2017-08-14T17:36:49.655Z,26.80
2017-08-14T17:39:18.508Z,26.60
2017-08-14T17:41:46.579Z,26.50
2017-08-14T17:44:14.684Z,26.40
2017-08-14T17:46:43.553Z,26.20
2017-08-14T17:49:11.646Z,26.10
2017-08-14T17:51:40.495Z,26.00
2017-08-14T17:54:08.987Z,26.00
2017-08-14T17:56:37.859Z,25.90
2017-08-14T17:59:05.943Z,25.90
2017-08-14T18:01:34.042Z,25.80
2017-08-14T18:04:02.131Z,25.70
2017-08-14T18:06:30.990Z,25.60
2017-08-14T18:08:59.067Z,25.50
2017-08-14T18:11:27.171Z,25.50
2017-08-14T18:13:56.030Z,25.30
2017-08-14T18:16:24.151Z,25.20
2017-08-14T18:18:52.232Z,25.10
2017-08-14T18:21:20.702Z,25.00
2017-08-14T18:23:49.583Z,24.90
2017-08-14T18:26:18.050Z,24.80
2017-08-14T18:28:46.898Z,24.60
2017-08-14T18:31:14.999Z,24.50
2017-08-14T18:33:43.953Z,24.30
2017-08-14T18:36:11.986Z,24.10
2017-08-14T18:38:40.067Z,24.00
2017-08-14T18:41:08.271Z,23.80
2017-08-14T18:43:36.752Z,23.70
2017-08-14T18:46:04.824Z,23.50
2017-08-14T18:48:32.924Z,23.40
2017-08-14T18:51:01.000Z,23.30
2017-08-14T18:53:29.965Z,23.30
2017-08-14T18:55:58.010Z,23.20
2017-08-14T18:58:26.112Z,23.10
2017-08-14T19:00:54.182Z,22.90
2017-08-14T19:03:22.351Z,22.80
2017-08-14T19:05:51.240Z,22.70
2017-08-14T19:08:21.120Z,22.60
2017-08-14T19:10:47.422Z,22.50
2017-08-14T19:13:15.504Z,22.40
2017-08-14T19:15:44.000Z,22.40
2017-08-14T19:18:12.474Z,22.30
2017-08-14T19:20:41.334Z,22.20
2017-08-14T19:23:09.422Z,22.20
2017-08-14T19:25:37.915Z,22.10
2017-08-14T19:28:06.756Z,22.00
2017-08-14T19:30:35.274Z,22.00
2017-08-14T19:33:03.352Z,22.00
2017-08-14T19:35:31.423Z,21.80
2017-08-14T19:37:59.543Z,21.70
2017-08-14T19:40:27.619Z,21.80
2017-08-14T19:42:55.694Z,21.80
2017-08-14T19:45:24.283Z,21.80
2017-08-14T19:47:52.726Z,21.90
2017-08-14T19:50:21.570Z,21.80
2017-08-14T19:52:49.667Z,21.80
2017-08-14T19:55:18.515Z,21.80
2017-08-14T19:57:46.631Z,21.90
2017-08-14T20:00:15.471Z,22.00
2017-08-14T20:02:43.547Z,21.90
2017-08-14T20:05:11.656Z,21.80
2017-08-14T20:07:40.207Z,21.80
2017-08-14T20:10:08.296Z,21.80
2017-08-14T20:12:37.140Z,21.70
2017-08-14T20:15:05.615Z,21.60
2017-08-14T20:17:33.720Z,21.50
2017-08-14T20:20:02.564Z,21.40
2017-08-14T20:22:31.431Z,21.40
2017-08-14T20:25:00.315Z,21.40
2017-08-14T20:27:28.444Z,21.30
2017-08-14T20:29:56.523Z,21.30
2017-08-14T20:32:24.599Z,21.20
2017-08-14T20:34:52.717Z,21.30
2017-08-14T20:37:20.823Z,21.30
2017-08-14T20:39:48.919Z,21.30
2017-08-14T20:42:17.002Z,21.30
2017-08-14T20:44:45.094Z,21.30
2017-08-14T20:47:13.195Z,21.30
2017-08-14T20:49:41.695Z,21.40
2017-08-14T20:52:09.780Z,21.40
2017-08-14T20:54:37.863Z,21.40
2017-08-14T20:57:06.735Z,21.40
2017-08-14T20:59:34.829Z,21.40
2017-08-14T21:02:02.891Z,21.30
2017-08-14T21:04:30.987Z,21.30
2017-08-14T21:06:59.072Z,21.30
2017-08-14T21:09:27.167Z,21.30
2017-08-14T21:11:56.051Z,21.10
2017-08-14T21:14:24.131Z,21.10
2017-08-14T21:16:52.966Z,21.20
2017-08-14T21:19:21.072Z,21.20
2017-08-14T21:21:49.147Z,21.10
2017-08-14T21:24:17.222Z,21.00
2017-08-14T21:26:45.328Z,20.90
2017-08-14T21:29:13.413Z,18.80
2017-08-14T21:31:41.527Z,21.00
2017-08-14T21:34:09.612Z,20.90
2017-08-14T21:36:37.692Z,21.00
2017-08-14T21:39:05.786Z,21.00
2017-08-14T21:41:34.632Z,21.00
2017-08-14T21:44:02.801Z,21.00
2017-08-14T21:46:30.847Z,21.00
2017-08-14T21:48:58.924Z,21.00
2017-08-14T21:51:27.019Z,20.90
2017-08-14T21:53:55.140Z,21.10
2017-08-14T21:56:23.219Z,21.00
2017-08-14T21:58:51.291Z,21.00
2017-08-14T22:01:19.399Z,20.90
2017-08-14T22:03:47.476Z,20.90
2017-08-14T22:06:15.595Z,20.90
2017-08-14T22:08:44.440Z,20.80
2017-08-14T22:11:12.511Z,20.80
2017-08-14T22:13:40.620Z,20.80
2017-08-14T22:16:08.700Z,20.90
2017-08-14T22:18:36.774Z,20.90
2017-08-14T22:21:04.876Z,20.90
2017-08-14T22:23:32.971Z,20.80
2017-08-14T22:26:01.067Z,20.70
2017-08-14T22:28:29.538Z,20.60
2017-08-14T22:30:57.660Z,20.60
2017-08-14T22:33:25.739Z,20.60
2017-08-14T22:35:53.815Z,20.70
2017-08-14T22:38:21.916Z,20.80
2017-08-14T22:40:50.011Z,20.80
2017-08-14T22:43:18.087Z,20.70
2017-08-14T22:45:46.179Z,20.60
2017-08-14T22:48:15.052Z,20.60
2017-08-14T22:50:43.151Z,20.60
2017-08-14T22:53:11.231Z,20.60
2017-08-14T22:55:39.338Z,20.60
2017-08-14T22:58:07.415Z,20.50
2017-08-14T23:00:36.284Z,20.50
2017-08-14T23:03:04.354Z,20.40
2017-08-14T23:05:32.467Z,20.40
2017-08-14T23:08:00.939Z,20.50
2017-08-14T23:10:29.014Z,20.50
2017-08-14T23:12:57.514Z,20.40
2017-08-14T23:15:25.604Z,20.30
2017-08-14T23:17:54.439Z,20.30
2017-08-14T23:20:22.544Z,20.30
2017-08-14T23:22:50.621Z,20.30
2017-08-14T23:25:18.723Z,20.40
2017-08-14T23:27:46.803Z,20.30
2017-08-14T23:30:14.901Z,20.20
2017-08-14T23:32:42.999Z,20.20
2017-08-14T23:35:11.103Z,20.10
2017-08-14T23:37:39.947Z,20.00
2017-08-14T23:40:08.052Z,20.00
2017-08-14T23:42:36.132Z,20.00
2017-08-14T23:45:05.015Z,20.00
2017-08-14T23:47:33.859Z,20.00
2017-08-14T23:50:02.330Z,20.10
2017-08-14T23:52:30.426Z,20.00
2017-08-14T23:54:58.503Z,20.00
2017-08-14T23:57:26.603Z,20.10
2017-08-14T23:59:55.451Z,20.10
